createdAt,value
2018-06-04T00:01:58.946Z,20.57
2018-06-04T00:05:02.268Z,20.57
2018-06-04T00:08:05.746Z,20.63
2018-06-04T00:11:08.944Z,20.76
2018-06-04T00:14:12.147Z,20.57
2018-06-04T00:17:15.335Z,20.53
2018-06-04T00:20:18.506Z,20.56
2018-06-04T00:23:21.690Z,20.56
2018-06-04T00:26:24.841Z,20.63
2018-06-04T00:29:28.019Z,20.57
2018-06-04T00:32:31.184Z,20.61
2018-06-04T00:35:34.348Z,20.55
2018-06-04T00:38:37.498Z,20.51
2018-06-04T00:41:40.676Z,20.55
2018-06-04T00:44:43.957Z,20.45
2018-06-04T00:47:47.214Z,20.40
2018-06-04T00:50:50.408Z,20.41
2018-06-04T00:53:53.584Z,20.29
2018-06-04T00:56:56.817Z,20.32
2018-06-04T00:59:59.999Z,20.18
2018-06-04T01:03:03.226Z,20.02
2018-06-04T01:06:06.405Z,20.22
2018-06-04T01:09:09.540Z,20.15
2018-06-04T01:12:12.754Z,19.64
2018-06-04T01:15:15.927Z,20.08
2018-06-04T01:18:19.091Z,20.16
2018-06-04T01:21:22.277Z,19.95
2018-06-04T01:24:25.454Z,20.09
2018-06-04T01:27:28.639Z,19.96
2018-06-04T01:30:31.822Z,20.20
2018-06-04T01:33:35.014Z,20.17
2018-06-04T01:36:38.195Z,20.09
2018-06-04T01:39:41.367Z,20.10
2018-06-04T01:42:44.563Z,20.22
2018-06-04T01:45:47.711Z,20.16
2018-06-04T01:48:50.882Z,20.12
2018-06-04T01:51:54.047Z,20.19
2018-06-04T01:54:57.274Z,20.13
2018-06-04T01:58:00.446Z,20.25
2018-06-04T02:01:03.612Z,20.19
2018-06-04T02:04:06.768Z,20.05
2018-06-04T02:07:09.937Z,20.17
2018-06-04T02:10:13.061Z,20.22
2018-06-04T02:13:16.210Z,20.00
2018-06-04T02:16:19.402Z,19.79
2018-06-04T02:19:22.523Z,19.87
2018-06-04T02:22:25.662Z,20.00
2018-06-04T02:25:28.863Z,20.04
2018-06-04T02:28:31.979Z,19.81
2018-06-04T02:31:35.201Z,19.83
2018-06-04T02:34:38.337Z,19.87
2018-06-04T02:37:41.439Z,20.09
2018-06-04T02:40:44.620Z,19.85
2018-06-04T02:43:47.775Z,19.85
2018-06-04T02:46:50.913Z,19.73
2018-06-04T02:49:54.500Z,19.79
2018-06-04T02:52:57.634Z,19.68
2018-06-04T02:56:00.847Z,19.61
2018-06-04T02:59:04.040Z,19.46
2018-06-04T03:02:07.351Z,19.65
2018-06-04T03:05:10.505Z,19.54
2018-06-04T03:08:13.722Z,19.66
2018-06-04T03:11:16.880Z,19.64
2018-06-04T03:14:20.114Z,19.41
2018-06-04T03:17:23.294Z,19.57
2018-06-04T03:20:26.485Z,19.24
2018-06-04T03:23:29.822Z,19.32
2018-06-04T03:26:34.180Z,19.32
2018-06-04T03:29:37.377Z,19.41
2018-06-04T03:32:40.531Z,19.38
2018-06-04T03:35:43.686Z,19.46
2018-06-04T03:38:46.809Z,19.43
2018-06-04T03:41:50.062Z,19.38
2018-06-04T03:44:53.531Z,19.40
2018-06-04T03:47:57.872Z,19.48
2018-06-04T03:51:01.128Z,19.58
2018-06-04T03:54:04.349Z,19.61
2018-06-04T03:57:07.498Z,19.37
2018-06-04T04:00:10.649Z,19.56
2018-06-04T04:03:13.820Z,19.64
2018-06-04T04:06:16.969Z,19.59
2018-06-04T04:09:20.187Z,19.54
2018-06-04T04:12:23.339Z,19.67
2018-06-04T04:15:26.584Z,19.60
2018-06-04T04:18:29.752Z,19.50
2018-06-04T04:21:32.991Z,19.58
2018-06-04T04:24:36.427Z,19.31
2018-06-04T04:27:39.668Z,19.54
2018-06-04T04:30:42.885Z,19.73
2018-06-04T04:33:46.066Z,19.88
2018-06-04T04:36:49.204Z,20.02
2018-06-04T04:39:52.527Z,19.80
2018-06-04T04:42:55.743Z,19.80
2018-06-04T04:45:58.949Z,19.67
2018-06-04T04:49:02.125Z,19.80
2018-06-04T04:52:05.352Z,20.02
2018-06-04T04:55:08.538Z,20.12
2018-06-04T04:58:11.722Z,20.11
2018-06-04T05:01:14.916Z,20.09
2018-06-04T05:04:18.100Z,20.09
2018-06-04T05:07:21.336Z,19.87
2018-06-04T05:10:24.520Z,19.96
2018-06-04T05:13:27.698Z,20.23
2018-06-04T05:16:30.897Z,20.17
2018-06-04T05:19:34.134Z,20.39
2018-06-04T05:22:37.299Z,20.34
2018-06-04T05:25:40.476Z,20.43
2018-06-04T05:28:43.622Z,20.43
2018-06-04T05:31:46.868Z,20.43
2018-06-04T05:34:50.012Z,20.36
2018-06-04T05:37:55.164Z,20.47
2018-06-04T05:40:58.325Z,20.32
2018-06-04T05:44:01.477Z,20.38
2018-06-04T05:47:04.633Z,20.54
2018-06-04T05:50:07.772Z,20.52
2018-06-04T05:53:10.931Z,20.59
2018-06-04T05:56:14.135Z,20.73
2018-06-04T05:59:17.271Z,20.74
2018-06-04T06:02:20.459Z,20.61
2018-06-04T06:05:23.691Z,20.60
2018-06-04T06:08:27.711Z,20.69
2018-06-04T06:11:30.963Z,20.80
2018-06-04T06:14:34.133Z,20.89
2018-06-04T06:17:37.307Z,20.92
2018-06-04T06:20:40.507Z,21.02
2018-06-04T06:23:43.743Z,21.10
2018-06-04T06:26:46.935Z,21.35
2018-06-04T06:29:50.063Z,21.25
2018-06-04T06:32:53.254Z,21.32
2018-06-04T06:35:56.418Z,21.35
2018-06-04T06:38:59.549Z,21.27
2018-06-04T06:42:02.741Z,21.21
2018-06-04T06:45:05.954Z,21.33
2018-06-04T06:48:09.140Z,21.49
2018-06-04T06:51:12.311Z,21.70
2018-06-04T06:54:15.525Z,21.87
2018-06-04T06:57:18.708Z,21.93
2018-06-04T07:00:21.935Z,22.14
2018-06-04T07:03:25.118Z,22.22
2018-06-04T07:06:28.270Z,22.24
2018-06-04T07:09:31.464Z,22.25
2018-06-04T07:12:34.642Z,22.32
2018-06-04T07:15:37.813Z,22.27
2018-06-04T07:18:41.786Z,22.21
2018-06-04T07:21:45.025Z,22.22
2018-06-04T07:24:49.131Z,22.30
2018-06-04T07:27:52.333Z,22.20
2018-06-04T07:30:55.504Z,22.48
2018-06-04T07:33:58.775Z,22.39
2018-06-04T07:37:02.040Z,22.42
2018-06-04T07:40:05.291Z,22.60
2018-06-04T07:43:08.511Z,22.76
2018-06-04T07:46:11.729Z,22.75
2018-06-04T07:49:16.109Z,22.66
2018-06-04T07:52:19.749Z,23.01
2018-06-04T07:55:23.002Z,23.12
2018-06-04T07:58:26.239Z,23.27
2018-06-04T08:01:29.462Z,23.31
2018-06-04T08:04:32.696Z,23.50
2018-06-04T08:07:36.019Z,23.60
2018-06-04T08:10:39.938Z,23.78
2018-06-04T08:13:43.252Z,23.52
2018-06-04T08:16:46.393Z,23.58
2018-06-04T08:19:49.582Z,23.71
2018-06-04T08:22:52.741Z,23.69
2018-06-04T08:25:56.506Z,23.98
2018-06-04T08:28:59.697Z,24.19
2018-06-04T08:32:02.863Z,24.39
2018-06-04T08:35:06.080Z,24.31
2018-06-04T08:38:09.316Z,24.27
2018-06-04T08:41:12.478Z,24.27
2018-06-04T08:44:15.659Z,24.46
2018-06-04T08:47:18.842Z,24.58
2018-06-04T08:50:22.066Z,24.74
2018-06-04T08:53:25.330Z,24.54
2018-06-04T08:56:28.588Z,24.86
2018-06-04T08:59:31.892Z,24.98
2018-06-04T09:02:35.153Z,25.06
2018-06-04T09:05:38.440Z,25.09
2018-06-04T09:08:41.722Z,25.43
2018-06-04T09:11:45.005Z,25.30
2018-06-04T09:14:48.458Z,25.35
2018-06-04T09:17:51.880Z,25.52
2018-06-04T09:20:55.033Z,25.74
2018-06-04T09:23:58.378Z,25.78
2018-06-04T09:27:01.572Z,25.79
2018-06-04T09:30:04.845Z,25.71
2018-06-04T09:33:08.102Z,25.67
2018-06-04T09:36:12.761Z,25.71
2018-06-04T09:39:16.085Z,26.01
2018-06-04T09:42:19.280Z,26.23
2018-06-04T09:45:23.638Z,26.03
2018-06-04T09:48:26.861Z,26.10
2018-06-04T09:51:30.141Z,25.98
2018-06-04T09:54:33.351Z,26.25
2018-06-04T09:57:36.579Z,26.28
2018-06-04T10:00:39.968Z,26.37
2018-06-04T10:03:43.217Z,26.46
2018-06-04T10:06:47.330Z,26.65
2018-06-04T10:09:50.588Z,26.18
2018-06-04T10:12:53.825Z,26.50
2018-06-04T10:15:57.847Z,26.90
2018-06-04T10:19:01.099Z,26.73
2018-06-04T10:22:04.413Z,26.71
2018-06-04T10:25:07.706Z,26.49
2018-06-04T10:28:11.023Z,26.61
2018-06-04T10:31:15.253Z,26.59
2018-06-04T10:34:18.447Z,26.84
2018-06-04T10:37:21.668Z,27.16
2018-06-04T10:40:24.926Z,27.27
2018-06-04T10:43:28.106Z,26.82
2018-06-04T10:46:31.415Z,26.64
2018-06-04T10:49:35.894Z,26.66
2018-06-04T10:52:39.198Z,26.52
2018-06-04T10:55:42.414Z,26.63
2018-06-04T10:58:45.709Z,26.55
2018-06-04T11:01:48.925Z,26.63
2018-06-04T11:04:52.152Z,26.94
2018-06-04T11:07:55.290Z,27.12
2018-06-04T11:10:58.576Z,27.03
2018-06-04T11:14:01.728Z,27.26
2018-06-04T11:17:04.967Z,26.61
2018-06-04T11:20:08.161Z,26.57
2018-06-04T11:23:11.416Z,26.34
2018-06-04T11:26:14.644Z,26.36
2018-06-04T11:29:17.844Z,26.14
2018-06-04T11:32:21.137Z,26.14
2018-06-04T11:35:24.412Z,26.49
2018-06-04T11:38:27.729Z,26.84
2018-06-04T11:41:31.033Z,27.34
2018-06-04T11:44:34.292Z,27.71
2018-06-04T11:47:37.515Z,27.83
2018-06-04T11:50:40.739Z,27.59
2018-06-04T11:53:43.972Z,28.01
2018-06-04T11:56:47.267Z,27.71
2018-06-04T11:59:50.592Z,27.72
2018-06-04T12:02:53.962Z,27.96
2018-06-04T12:05:57.175Z,27.97
2018-06-04T12:09:01.071Z,27.45
2018-06-04T12:12:04.325Z,27.58
2018-06-04T12:15:07.561Z,27.79
2018-06-04T12:18:10.793Z,27.85
2018-06-04T12:21:14.344Z,27.74
2018-06-04T12:24:17.583Z,28.13
2018-06-04T12:27:20.795Z,28.52
2018-06-04T12:30:24.062Z,28.73
2018-06-04T12:33:27.437Z,28.25
2018-06-04T12:36:30.826Z,28.43
2018-06-04T12:39:34.160Z,28.71
2018-06-04T12:42:37.407Z,28.97
2018-06-04T12:45:40.595Z,28.85
2018-06-04T12:48:43.936Z,28.67
2018-06-04T12:51:47.152Z,28.55
2018-06-04T12:54:50.462Z,28.69
2018-06-04T12:57:54.804Z,28.83
2018-06-04T13:00:58.164Z,29.04
2018-06-04T13:04:01.405Z,29.16
2018-06-04T13:07:04.742Z,29.11
2018-06-04T13:10:11.662Z,28.61
2018-06-04T13:13:14.935Z,28.60
2018-06-04T13:16:18.430Z,28.36
2018-06-04T13:19:22.714Z,28.77
2018-06-04T13:22:25.975Z,28.49
2018-06-04T13:25:29.207Z,28.68
2018-06-04T13:28:32.429Z,28.84
2018-06-04T13:31:35.683Z,28.80
2018-06-04T13:34:38.930Z,28.30
2018-06-04T13:37:42.123Z,28.13
2018-06-04T13:40:45.405Z,28.43
2018-06-04T13:43:48.633Z,28.19
2018-06-04T13:46:51.902Z,28.37
2018-06-04T13:49:55.373Z,28.10
2018-06-04T13:52:58.633Z,28.69
2018-06-04T13:56:02.185Z,28.23
2018-06-04T13:59:06.116Z,27.80
2018-06-04T14:02:09.456Z,27.80
2018-06-04T14:05:12.924Z,28.56
2018-06-04T14:59:04.689Z,28.17
2018-06-04T15:02:08.166Z,28.12
2018-06-04T15:05:11.494Z,28.19
2018-06-04T15:08:14.826Z,27.55
2018-06-04T15:11:18.469Z,27.52
2018-06-04T15:14:21.900Z,27.22
2018-06-04T15:17:25.253Z,27.42
2018-06-04T15:20:28.871Z,27.40
2018-06-04T15:23:32.817Z,27.47
2018-06-04T15:26:37.348Z,27.69
2018-06-04T15:29:40.681Z,27.46
2018-06-04T15:32:44.024Z,27.09
2018-06-04T15:35:47.939Z,27.37
2018-06-04T15:38:51.319Z,27.37
2018-06-04T15:41:54.609Z,27.35
2018-06-04T15:44:57.919Z,27.21
2018-06-04T15:48:01.206Z,27.19
2018-06-04T15:51:04.720Z,27.25
2018-06-04T15:54:08.101Z,26.84
2018-06-04T15:57:13.882Z,26.77
2018-06-04T16:00:17.314Z,26.76
2018-06-04T16:03:20.983Z,26.57
2018-06-04T16:06:24.710Z,26.53
2018-06-04T16:09:28.008Z,26.60
2018-06-04T16:12:32.025Z,26.69
2018-06-04T16:15:36.489Z,26.58
2018-06-04T16:18:39.877Z,26.57
2018-06-04T16:21:43.320Z,26.68
2018-06-04T16:24:46.763Z,26.84
2018-06-04T16:27:50.072Z,26.68
2018-06-04T16:30:53.580Z,26.78
2018-06-04T16:33:57.152Z,26.58
2018-06-04T16:37:01.331Z,26.55
2018-06-04T16:40:05.576Z,26.62
2018-06-04T16:43:09.225Z,26.26
2018-06-04T16:46:12.816Z,26.06
2018-06-04T16:49:16.362Z,26.21
2018-06-04T16:52:19.785Z,26.10
2018-06-04T16:55:23.892Z,26.13
2018-06-04T16:58:28.118Z,26.06
2018-06-04T17:01:32.306Z,26.06
2018-06-04T17:04:35.730Z,26.15
2018-06-04T17:07:39.204Z,26.01
2018-06-04T17:10:42.625Z,26.09
2018-06-04T17:13:46.273Z,26.15
2018-06-04T17:16:49.809Z,26.01
2018-06-04T17:19:53.389Z,26.03
2018-06-04T17:22:57.289Z,25.90
2018-06-04T17:26:00.830Z,25.89
2018-06-04T17:29:04.489Z,25.80
2018-06-04T17:32:07.972Z,25.81
2018-06-04T17:35:11.456Z,25.79
2018-06-04T17:38:15.093Z,25.79
2018-06-04T17:41:18.501Z,25.65
2018-06-04T17:44:21.923Z,25.46
2018-06-04T17:47:26.339Z,25.43
2018-06-04T17:50:29.872Z,25.60
2018-06-04T17:53:33.481Z,25.63
2018-06-04T17:56:36.912Z,25.46
2018-06-04T17:59:40.521Z,25.49
2018-06-04T18:02:44.252Z,25.40
2018-06-04T18:05:47.752Z,25.26
2018-06-04T18:08:51.911Z,25.13
2018-06-04T18:11:55.384Z,24.99
2018-06-04T18:14:58.968Z,24.94
2018-06-04T18:18:02.376Z,24.94
2018-06-04T18:21:05.717Z,24.96
2018-06-04T18:24:09.101Z,25.00
2018-06-04T18:27:13.149Z,24.81
2018-06-04T18:30:16.898Z,24.73
2018-06-04T18:33:20.484Z,24.74
2018-06-04T18:36:24.003Z,24.72
2018-06-04T18:39:27.931Z,24.81
2018-06-04T18:42:31.603Z,24.73
2018-06-04T18:45:35.287Z,24.74
2018-06-04T18:48:38.741Z,24.67
2018-06-04T18:51:42.268Z,24.59
2018-06-04T18:54:46.748Z,24.52
2018-06-04T18:57:50.932Z,24.36
2018-06-04T19:00:54.420Z,24.45
2018-06-04T19:03:58.096Z,24.44
2018-06-04T19:07:01.649Z,24.36
2018-06-04T19:10:05.324Z,24.04
2018-06-04T19:13:08.947Z,24.12
2018-06-04T19:16:12.449Z,24.10
2018-06-04T19:19:15.879Z,24.10
2018-06-04T19:22:19.677Z,24.31
2018-06-04T19:25:24.105Z,24.36
2018-06-04T19:28:27.642Z,24.44
2018-06-04T19:31:31.310Z,24.22
2018-06-04T19:34:34.801Z,24.26
2018-06-04T19:37:38.212Z,24.21
2018-06-04T19:40:41.805Z,24.02
2018-06-04T19:43:45.280Z,24.04
2018-06-04T19:46:48.806Z,23.89
2018-06-04T19:49:52.282Z,24.32
2018-06-04T19:52:56.006Z,24.30
2018-06-04T19:55:59.485Z,24.29
2018-06-04T19:59:02.898Z,24.26
2018-06-04T20:02:06.451Z,24.00
2018-06-04T20:05:09.833Z,24.19
2018-06-04T20:08:13.297Z,24.07
2018-06-04T20:11:16.909Z,24.04
2018-06-04T20:14:20.551Z,23.93
2018-06-04T20:17:24.182Z,23.75
2018-06-04T20:20:28.029Z,23.87
2018-06-04T20:23:31.836Z,23.84
2018-06-04T20:26:36.224Z,23.77
2018-06-04T20:29:39.557Z,23.48
2018-06-04T20:32:42.847Z,23.22
2018-06-04T20:35:46.128Z,23.23
2018-06-04T20:38:49.498Z,22.71
2018-06-04T20:41:53.913Z,22.84
2018-06-04T20:44:57.207Z,22.86
2018-06-04T20:48:00.526Z,22.58
2018-06-04T20:51:03.945Z,22.63
2018-06-04T20:54:07.269Z,22.59
2018-06-04T20:57:11.350Z,22.63
2018-06-04T21:00:14.580Z,22.60
2018-06-04T21:03:18.025Z,22.48
2018-06-04T21:06:21.370Z,22.37
2018-06-04T21:09:24.758Z,22.33
2018-06-04T21:12:28.052Z,22.22
2018-06-04T21:15:31.283Z,22.06
2018-06-04T21:18:34.554Z,22.21
2018-06-04T21:21:37.848Z,22.13
2018-06-04T21:24:41.095Z,22.28
2018-06-04T21:27:44.415Z,22.05
2018-06-04T21:30:47.655Z,22.07
2018-06-04T21:33:50.948Z,21.98
2018-06-04T21:36:54.180Z,21.55
2018-06-04T21:39:57.413Z,21.16
2018-06-04T21:43:00.677Z,21.38
2018-06-04T21:46:04.001Z,21.44
2018-06-04T21:49:07.295Z,21.36
2018-06-04T21:52:10.630Z,20.80
2018-06-04T21:55:13.906Z,20.85
2018-06-04T21:58:17.241Z,20.94
2018-06-04T22:01:20.479Z,20.41
2018-06-04T22:04:23.699Z,20.47
2018-06-04T22:07:26.907Z,20.09
2018-06-04T22:10:30.100Z,19.52
2018-06-04T22:13:33.276Z,20.09
2018-06-04T22:16:36.499Z,20.09
2018-06-04T22:19:39.696Z,20.10
2018-06-04T22:22:43.062Z,20.16
2018-06-04T22:25:46.292Z,20.18
2018-06-04T22:28:49.480Z,20.20
2018-06-04T22:31:52.664Z,19.93
2018-06-04T22:34:55.860Z,20.06
2018-06-04T22:37:59.080Z,20.28
2018-06-04T22:41:02.388Z,20.39
2018-06-04T22:44:05.755Z,20.24
2018-06-04T22:47:08.939Z,19.32
2018-06-04T22:50:12.194Z,19.80
2018-06-04T22:53:15.385Z,19.69
2018-06-04T22:56:18.533Z,20.16
2018-06-04T22:59:21.719Z,20.22
2018-06-04T23:02:24.971Z,20.07
2018-06-04T23:05:28.251Z,19.99
2018-06-04T23:08:31.438Z,20.00
2018-06-04T23:11:34.624Z,20.00
2018-06-04T23:14:37.796Z,19.76
2018-06-04T23:17:40.990Z,19.27
2018-06-04T23:20:44.132Z,19.74
2018-06-04T23:23:47.350Z,19.73
2018-06-04T23:26:50.507Z,19.86
2018-06-04T23:29:53.694Z,20.16
2018-06-04T23:32:56.876Z,19.74
2018-06-04T23:36:00.052Z,19.29
2018-06-04T23:39:03.254Z,19.72
2018-06-04T23:42:06.435Z,19.37
2018-06-04T23:45:09.570Z,19.63
2018-06-04T23:48:12.759Z,19.77
2018-06-04T23:51:15.870Z,19.74
2018-06-04T23:54:19.054Z,19.58
2018-06-04T23:57:22.216Z,19.24
